sensor_id;sensor_type;location;lat;lon;timestamp;P1;durP1;ratioP1;P2;durP2;ratioP2
46721;SDS011;32455;43.430;23.136;2022-12-19T00:00:20;30.50;;;16.58;;
46721;SDS011;32455;43.430;23.136;2022-12-19T00:03:06;26.50;;;14.68;;
46721;SDS011;32455;43.430;23.136;2022-12-19T00:05:51;24.98;;;12.35;;
46721;SDS011;32455;43.430;23.136;2022-12-19T00:08:37;19.70;;;10.90;;
46721;SDS011;32455;43.430;23.136;2022-12-19T00:11:28;19.20;;;10.30;;
46721;SDS011;32455;43.430;23.136;2022-12-19T00:14:13;18.10;;;9.93;;
46721;SDS011;32455;43.430;23.136;2022-12-19T00:16:59;21.52;;;10.20;;
46721;SDS011;32455;43.430;23.136;2022-12-19T00:19:45;23.70;;;12.63;;
46721;SDS011;32455;43.430;23.136;2022-12-19T00:22:30;26.50;;;12.93;;
46721;SDS011;32455;43.430;23.136;2022-12-19T00:25:15;28.08;;;12.45;;
46721;SDS011;32455;43.430;23.136;2022-12-19T00:28:01;25.90;;;13.43;;
46721;SDS011;32455;43.430;23.136;2022-12-19T00:30:48;24.05;;;12.95;;
46721;SDS011;32455;43.430;23.136;2022-12-19T00:33:33;27.20;;;12.75;;
46721;SDS011;32455;43.430;23.136;2022-12-19T00:36:20;28.13;;;13.77;;
46721;SDS011;32455;43.430;23.136;2022-12-19T00:39:07;27.38;;;13.48;;
46721;SDS011;32455;43.430;23.136;2022-12-19T00:41:54;28.10;;;12.45;;
46721;SDS011;32455;43.430;23.136;2022-12-19T00:44:39;28.02;;;13.70;;
46721;SDS011;32455;43.430;23.136;2022-12-19T00:47:25;21.88;;;11.90;;
46721;SDS011;32455;43.430;23.136;2022-12-19T00:50:10;25.58;;;12.63;;
46721;SDS011;32455;43.430;23.136;2022-12-19T00:52:56;21.15;;;11.70;;
46721;SDS011;32455;43.430;23.136;2022-12-19T00:55:41;28.60;;;13.98;;
46721;SDS011;32455;43.430;23.136;2022-12-19T00:58:27;28.08;;;13.98;;
46721;SDS011;32455;43.430;23.136;2022-12-19T01:01:13;22.95;;;12.00;;
46721;SDS011;32455;43.430;23.136;2022-12-19T01:04:02;23.60;;;12.43;;
46721;SDS011;32455;43.430;23.136;2022-12-19T01:06:48;25.15;;;12.95;;
46721;SDS011;32455;43.430;23.136;2022-12-19T01:09:35;33.88;;;14.55;;
46721;SDS011;32455;43.430;23.136;2022-12-19T01:12:22;34.15;;;15.82;;
46721;SDS011;32455;43.430;23.136;2022-12-19T01:15:26;34.70;;;16.42;;
46721;SDS011;32455;43.430;23.136;2022-12-19T01:18:11;35.67;;;17.23;;
46721;SDS011;32455;43.430;23.136;2022-12-19T01:20:58;29.20;;;15.93;;
46721;SDS011;32455;43.430;23.136;2022-12-19T01:23:45;32.47;;;17.08;;
46721;SDS011;32455;43.430;23.136;2022-12-19T01:26:30;33.17;;;16.42;;
46721;SDS011;32455;43.430;23.136;2022-12-19T01:29:16;32.65;;;15.93;;
46721;SDS011;32455;43.430;23.136;2022-12-19T01:32:01;30.48;;;15.38;;
46721;SDS011;32455;43.430;23.136;2022-12-19T01:34:46;31.45;;;16.50;;
46721;SDS011;32455;43.430;23.136;2022-12-19T01:37:32;27.80;;;15.15;;
46721;SDS011;32455;43.430;23.136;2022-12-19T01:40:18;30.13;;;15.43;;
46721;SDS011;32455;43.430;23.136;2022-12-19T01:43:05;27.77;;;14.93;;
46721;SDS011;32455;43.430;23.136;2022-12-19T01:46:00;29.23;;;15.40;;
46721;SDS011;32455;43.430;23.136;2022-12-19T01:48:48;28.42;;;14.55;;
46721;SDS011;32455;43.430;23.136;2022-12-19T01:51:43;29.75;;;14.88;;
46721;SDS011;32455;43.430;23.136;2022-12-19T01:54:33;30.17;;;14.63;;
46721;SDS011;32455;43.430;23.136;2022-12-19T01:57:21;34.45;;;15.82;;
46721;SDS011;32455;43.430;23.136;2022-12-19T02:00:06;28.35;;;14.10;;
46721;SDS011;32455;43.430;23.136;2022-12-19T02:03:18;29.42;;;14.45;;
46721;SDS011;32455;43.430;23.136;2022-12-19T02:06:00;29.25;;;15.55;;
46721;SDS011;32455;43.430;23.136;2022-12-19T02:08:48;27.83;;;15.38;;
46721;SDS011;32455;43.430;23.136;2022-12-19T02:11:34;29.80;;;14.35;;
46721;SDS011;32455;43.430;23.136;2022-12-19T02:14:19;25.33;;;13.18;;
46721;SDS011;32455;43.430;23.136;2022-12-19T02:27:02;27.02;;;12.32;;
46721;SDS011;32455;43.430;23.136;2022-12-19T02:36:25;26.50;;;14.10;;
46721;SDS011;32455;43.430;23.136;2022-12-19T02:42:08;41.08;;;17.10;;
46721;SDS011;32455;43.430;23.136;2022-12-19T02:44:59;44.08;;;21.42;;
46721;SDS011;32455;43.430;23.136;2022-12-19T02:47:46;40.40;;;20.00;;
46721;SDS011;32455;43.430;23.136;2022-12-19T02:50:41;31.30;;;16.20;;
46721;SDS011;32455;43.430;23.136;2022-12-19T02:53:28;28.73;;;13.50;;
46721;SDS011;32455;43.430;23.136;2022-12-19T03:05:26;26.10;;;13.40;;
46721;SDS011;32455;43.430;23.136;2022-12-19T03:08:42;23.23;;;12.38;;
46721;SDS011;32455;43.430;23.136;2022-12-19T03:11:34;26.50;;;13.13;;
46721;SDS011;32455;43.430;23.136;2022-12-19T03:14:23;29.92;;;12.48;;
46721;SDS011;32455;43.430;23.136;2022-12-19T03:17:10;25.70;;;12.88;;
46721;SDS011;32455;43.430;23.136;2022-12-19T03:19:55;27.52;;;12.90;;
46721;SDS011;32455;43.430;23.136;2022-12-19T03:22:41;26.77;;;13.13;;
46721;SDS011;32455;43.430;23.136;2022-12-19T03:25:26;28.80;;;12.65;;
46721;SDS011;32455;43.430;23.136;2022-12-19T03:28:56;24.17;;;12.43;;
46721;SDS011;32455;43.430;23.136;2022-12-19T03:31:31;22.88;;;12.30;;
46721;SDS011;32455;43.430;23.136;2022-12-19T03:34:25;25.88;;;12.50;;
46721;SDS011;32455;43.430;23.136;2022-12-19T03:37:14;25.45;;;12.68;;
46721;SDS011;32455;43.430;23.136;2022-12-19T03:40:06;24.40;;;12.02;;
46721;SDS011;32455;43.430;23.136;2022-12-19T03:42:57;24.98;;;12.30;;
46721;SDS011;32455;43.430;23.136;2022-12-19T03:48:51;25.58;;;13.02;;
46721;SDS011;32455;43.430;23.136;2022-12-19T03:51:51;22.05;;;11.50;;
46721;SDS011;32455;43.430;23.136;2022-12-19T03:54:47;25.73;;;12.73;;
46721;SDS011;32455;43.430;23.136;2022-12-19T03:57:40;22.88;;;11.25;;
46721;SDS011;32455;43.430;23.136;2022-12-19T04:00:47;24.90;;;11.82;;
46721;SDS011;32455;43.430;23.136;2022-12-19T04:03:34;26.30;;;12.70;;
46721;SDS011;32455;43.430;23.136;2022-12-19T04:06:20;23.50;;;12.35;;
46721;SDS011;32455;43.430;23.136;2022-12-19T04:09:06;23.75;;;10.93;;
46721;SDS011;32455;43.430;23.136;2022-12-19T04:11:53;24.38;;;11.32;;
46721;SDS011;32455;43.430;23.136;2022-12-19T04:14:44;22.60;;;11.27;;
46721;SDS011;32455;43.430;23.136;2022-12-19T04:17:43;24.88;;;12.68;;
46721;SDS011;32455;43.430;23.136;2022-12-19T04:20:36;22.35;;;11.23;;
46721;SDS011;32455;43.430;23.136;2022-12-19T04:23:30;23.70;;;12.52;;
46721;SDS011;32455;43.430;23.136;2022-12-19T04:26:21;21.45;;;11.13;;
46721;SDS011;32455;43.430;23.136;2022-12-19T04:29:09;24.70;;;12.57;;
46721;SDS011;32455;43.430;23.136;2022-12-19T04:31:58;24.02;;;12.50;;
46721;SDS011;32455;43.430;23.136;2022-12-19T04:34:45;26.08;;;12.13;;
46721;SDS011;32455;43.430;23.136;2022-12-19T04:37:31;23.00;;;11.63;;
46721;SDS011;32455;43.430;23.136;2022-12-19T04:40:16;27.73;;;12.93;;
46721;SDS011;32455;43.430;23.136;2022-12-19T04:43:02;25.02;;;12.77;;
46721;SDS011;32455;43.430;23.136;2022-12-19T04:45:47;25.50;;;11.93;;
46721;SDS011;32455;43.430;23.136;2022-12-19T04:48:35;23.27;;;11.85;;
46721;SDS011;32455;43.430;23.136;2022-12-19T04:51:21;30.70;;;12.73;;
46721;SDS011;32455;43.430;23.136;2022-12-19T04:54:07;27.73;;;13.50;;
46721;SDS011;32455;43.430;23.136;2022-12-19T04:56:52;26.33;;;13.77;;
46721;SDS011;32455;43.430;23.136;2022-12-19T04:59:38;26.75;;;13.32;;
46721;SDS011;32455;43.430;23.136;2022-12-19T05:02:23;25.77;;;13.55;;
46721;SDS011;32455;43.430;23.136;2022-12-19T05:05:08;23.17;;;12.63;;
46721;SDS011;32455;43.430;23.136;2022-12-19T05:07:54;28.27;;;13.10;;
46721;SDS011;32455;43.430;23.136;2022-12-19T05:10:40;26.67;;;13.75;;
46721;SDS011;32455;43.430;23.136;2022-12-19T05:13:25;27.40;;;12.98;;
46721;SDS011;32455;43.430;23.136;2022-12-19T05:16:11;26.40;;;12.77;;
46721;SDS011;32455;43.430;23.136;2022-12-19T05:18:57;24.63;;;14.07;;
46721;SDS011;32455;43.430;23.136;2022-12-19T05:21:43;24.25;;;13.23;;
46721;SDS011;32455;43.430;23.136;2022-12-19T05:24:29;27.00;;;12.65;;
46721;SDS011;32455;43.430;23.136;2022-12-19T05:27:14;23.90;;;12.90;;
46721;SDS011;32455;43.430;23.136;2022-12-19T05:29:59;27.85;;;12.82;;
46721;SDS011;32455;43.430;23.136;2022-12-19T05:32:46;25.50;;;12.23;;
46721;SDS011;32455;43.430;23.136;2022-12-19T05:35:32;26.95;;;12.00;;
46721;SDS011;32455;43.430;23.136;2022-12-19T05:38:17;23.23;;;12.57;;
46721;SDS011;32455;43.430;23.136;2022-12-19T05:41:09;25.48;;;11.85;;
46721;SDS011;32455;43.430;23.136;2022-12-19T05:44:00;24.83;;;12.68;;
46721;SDS011;32455;43.430;23.136;2022-12-19T05:46:45;26.80;;;13.63;;
46721;SDS011;32455;43.430;23.136;2022-12-19T05:49:31;26.13;;;13.05;;
46721;SDS011;32455;43.430;23.136;2022-12-19T05:52:16;23.95;;;12.40;;
46721;SDS011;32455;43.430;23.136;2022-12-19T05:55:02;34.22;;;14.73;;
46721;SDS011;32455;43.430;23.136;2022-12-19T05:57:48;24.73;;;12.75;;
46721;SDS011;32455;43.430;23.136;2022-12-19T06:00:34;28.73;;;13.82;;
46721;SDS011;32455;43.430;23.136;2022-12-19T06:03:20;27.88;;;13.52;;
46721;SDS011;32455;43.430;23.136;2022-12-19T06:06:07;29.67;;;15.57;;
46721;SDS011;32455;43.430;23.136;2022-12-19T06:08:57;29.20;;;15.00;;
46721;SDS011;32455;43.430;23.136;2022-12-19T06:11:43;25.33;;;13.00;;
46721;SDS011;32455;43.430;23.136;2022-12-19T06:14:29;26.85;;;13.75;;
46721;SDS011;32455;43.430;23.136;2022-12-19T06:17:15;23.33;;;13.05;;
46721;SDS011;32455;43.430;23.136;2022-12-19T06:20:00;24.27;;;13.20;;
46721;SDS011;32455;43.430;23.136;2022-12-19T06:22:45;30.25;;;13.00;;
46721;SDS011;32455;43.430;23.136;2022-12-19T06:25:31;28.40;;;13.13;;
46721;SDS011;32455;43.430;23.136;2022-12-19T06:28:16;25.40;;;13.05;;
46721;SDS011;32455;43.430;23.136;2022-12-19T06:31:03;27.42;;;14.02;;
46721;SDS011;32455;43.430;23.136;2022-12-19T06:33:49;24.85;;;13.50;;
46721;SDS011;32455;43.430;23.136;2022-12-19T06:36:34;26.88;;;14.02;;
46721;SDS011;32455;43.430;23.136;2022-12-19T06:39:20;25.98;;;14.02;;
46721;SDS011;32455;43.430;23.136;2022-12-19T06:42:07;24.90;;;13.02;;
46721;SDS011;32455;43.430;23.136;2022-12-19T06:45:08;28.50;;;14.35;;
46721;SDS011;32455;43.430;23.136;2022-12-19T06:47:54;24.27;;;13.27;;
46721;SDS011;32455;43.430;23.136;2022-12-19T06:50:40;27.30;;;14.55;;
46721;SDS011;32455;43.430;23.136;2022-12-19T06:53:25;27.15;;;14.02;;
46721;SDS011;32455;43.430;23.136;2022-12-19T06:56:12;35.25;;;15.68;;
46721;SDS011;32455;43.430;23.136;2022-12-19T06:58:59;30.13;;;15.23;;
46721;SDS011;32455;43.430;23.136;2022-12-19T07:04:45;32.30;;;15.20;;
46721;SDS011;32455;43.430;23.136;2022-12-19T07:07:33;28.65;;;13.23;;
46721;SDS011;32455;43.430;23.136;2022-12-19T07:10:20;30.55;;;15.32;;
46721;SDS011;32455;43.430;23.136;2022-12-19T07:13:05;29.38;;;14.20;;
46721;SDS011;32455;43.430;23.136;2022-12-19T07:15:50;39.40;;;17.63;;
46721;SDS011;32455;43.430;23.136;2022-12-19T07:18:36;52.72;;;22.88;;
46721;SDS011;32455;43.430;23.136;2022-12-19T07:21:23;34.05;;;16.83;;
46721;SDS011;32455;43.430;23.136;2022-12-19T07:24:08;27.58;;;12.77;;
46721;SDS011;32455;43.430;23.136;2022-12-19T07:26:55;31.13;;;16.15;;
46721;SDS011;32455;43.430;23.136;2022-12-19T07:29:41;33.85;;;15.63;;
46721;SDS011;32455;43.430;23.136;2022-12-19T07:32:26;71.20;;;26.55;;
46721;SDS011;32455;43.430;23.136;2022-12-19T07:35:12;58.45;;;22.35;;
46721;SDS011;32455;43.430;23.136;2022-12-19T07:38:01;39.47;;;18.35;;
46721;SDS011;32455;43.430;23.136;2022-12-19T07:40:48;30.77;;;15.80;;
46721;SDS011;32455;43.430;23.136;2022-12-19T07:43:34;36.25;;;15.82;;
46721;SDS011;32455;43.430;23.136;2022-12-19T07:46:20;31.05;;;14.75;;
46721;SDS011;32455;43.430;23.136;2022-12-19T07:49:05;27.90;;;14.35;;
46721;SDS011;32455;43.430;23.136;2022-12-19T07:51:51;33.10;;;15.63;;
46721;SDS011;32455;43.430;23.136;2022-12-19T07:54:36;30.40;;;14.50;;
46721;SDS011;32455;43.430;23.136;2022-12-19T07:57:22;30.92;;;13.95;;
46721;SDS011;32455;43.430;23.136;2022-12-19T08:00:07;35.22;;;15.68;;
46721;SDS011;32455;43.430;23.136;2022-12-19T08:02:53;30.55;;;15.02;;
46721;SDS011;32455;43.430;23.136;2022-12-19T08:05:39;30.17;;;14.75;;
46721;SDS011;32455;43.430;23.136;2022-12-19T08:08:24;29.00;;;13.40;;
46721;SDS011;32455;43.430;23.136;2022-12-19T08:11:11;31.65;;;14.82;;
46721;SDS011;32455;43.430;23.136;2022-12-19T08:14:01;30.00;;;14.18;;
46721;SDS011;32455;43.430;23.136;2022-12-19T08:16:47;26.30;;;13.73;;
46721;SDS011;32455;43.430;23.136;2022-12-19T08:19:33;27.20;;;13.93;;
46721;SDS011;32455;43.430;23.136;2022-12-19T08:22:18;28.75;;;14.43;;
46721;SDS011;32455;43.430;23.136;2022-12-19T08:25:03;27.05;;;14.23;;
46721;SDS011;32455;43.430;23.136;2022-12-19T08:27:50;28.27;;;14.25;;
46721;SDS011;32455;43.430;23.136;2022-12-19T08:30:39;25.25;;;13.18;;
46721;SDS011;32455;43.430;23.136;2022-12-19T08:33:25;27.05;;;14.85;;
46721;SDS011;32455;43.430;23.136;2022-12-19T08:36:11;28.85;;;14.50;;
46721;SDS011;32455;43.430;23.136;2022-12-19T08:38:58;30.35;;;14.48;;
46721;SDS011;32455;43.430;23.136;2022-12-19T08:41:43;31.65;;;15.40;;
46721;SDS011;32455;43.430;23.136;2022-12-19T08:44:29;30.83;;;15.23;;
46721;SDS011;32455;43.430;23.136;2022-12-19T08:47:14;32.28;;;15.52;;
46721;SDS011;32455;43.430;23.136;2022-12-19T08:50:00;31.02;;;13.77;;
46721;SDS011;32455;43.430;23.136;2022-12-19T08:52:45;27.23;;;13.82;;
46721;SDS011;32455;43.430;23.136;2022-12-19T08:55:31;27.15;;;14.70;;
46721;SDS011;32455;43.430;23.136;2022-12-19T08:58:19;27.67;;;13.65;;
46721;SDS011;32455;43.430;23.136;2022-12-19T09:01:07;25.63;;;14.40;;
46721;SDS011;32455;43.430;23.136;2022-12-19T09:03:57;28.15;;;13.73;;
46721;SDS011;32455;43.430;23.136;2022-12-19T09:06:43;32.45;;;14.85;;
46721;SDS011;32455;43.430;23.136;2022-12-19T09:09:29;30.48;;;14.90;;
46721;SDS011;32455;43.430;23.136;2022-12-19T09:12:14;30.17;;;14.00;;
46721;SDS011;32455;43.430;23.136;2022-12-19T09:15:00;30.65;;;14.80;;
46721;SDS011;32455;43.430;23.136;2022-12-19T09:17:45;31.52;;;15.50;;
46721;SDS011;32455;43.430;23.136;2022-12-19T09:20:30;38.47;;;16.67;;
46721;SDS011;32455;43.430;23.136;2022-12-19T09:23:17;30.27;;;15.75;;
46721;SDS011;32455;43.430;23.136;2022-12-19T09:26:05;35.20;;;16.33;;
46721;SDS011;32455;43.430;23.136;2022-12-19T09:28:52;32.97;;;16.92;;
46721;SDS011;32455;43.430;23.136;2022-12-19T09:31:37;30.80;;;16.35;;
46721;SDS011;32455;43.430;23.136;2022-12-19T09:34:24;32.30;;;16.98;;
46721;SDS011;32455;43.430;23.136;2022-12-19T09:37:11;35.22;;;16.17;;
46721;SDS011;32455;43.430;23.136;2022-12-19T09:39:57;36.65;;;17.20;;
46721;SDS011;32455;43.430;23.136;2022-12-19T09:48:35;35.67;;;16.48;;
46721;SDS011;32455;43.430;23.136;2022-12-19T10:00:55;26.80;;;14.23;;
46721;SDS011;32455;43.430;23.136;2022-12-19T10:03:46;29.60;;;13.35;;
46721;SDS011;32455;43.430;23.136;2022-12-19T10:06:42;27.77;;;13.80;;
46721;SDS011;32455;43.430;23.136;2022-12-19T10:09:33;36.22;;;15.43;;
46721;SDS011;32455;43.430;23.136;2022-12-19T10:12:22;26.73;;;13.82;;
46721;SDS011;32455;43.430;23.136;2022-12-19T10:15:22;31.02;;;14.98;;
46721;SDS011;32455;43.430;23.136;2022-12-19T10:27:05;31.00;;;14.48;;
46721;SDS011;32455;43.430;23.136;2022-12-19T10:30:15;31.77;;;15.95;;
46721;SDS011;32455;43.430;23.136;2022-12-19T10:39:08;28.33;;;15.10;;
46721;SDS011;32455;43.430;23.136;2022-12-19T10:42:17;28.45;;;15.18;;
46721;SDS011;32455;43.430;23.136;2022-12-19T10:45:15;28.67;;;14.27;;
46721;SDS011;32455;43.430;23.136;2022-12-19T10:48:02;34.55;;;15.43;;
46721;SDS011;32455;43.430;23.136;2022-12-19T10:50:48;32.17;;;15.85;;
46721;SDS011;32455;43.430;23.136;2022-12-19T10:53:34;29.25;;;15.82;;
46721;SDS011;32455;43.430;23.136;2022-12-19T10:56:24;25.02;;;14.95;;
46721;SDS011;32455;43.430;23.136;2022-12-19T10:59:16;27.80;;;15.43;;
46721;SDS011;32455;43.430;23.136;2022-12-19T11:02:04;29.42;;;13.45;;
46721;SDS011;32455;43.430;23.136;2022-12-19T11:13:50;30.27;;;15.23;;
46721;SDS011;32455;43.430;23.136;2022-12-19T11:16:36;32.40;;;16.42;;
46721;SDS011;32455;43.430;23.136;2022-12-19T11:22:23;38.42;;;18.60;;
46721;SDS011;32455;43.430;23.136;2022-12-19T11:25:15;35.50;;;16.85;;
46721;SDS011;32455;43.430;23.136;2022-12-19T11:28:04;30.90;;;15.43;;
46721;SDS011;32455;43.430;23.136;2022-12-19T11:31:18;32.33;;;15.13;;
46721;SDS011;32455;43.430;23.136;2022-12-19T11:34:19;34.53;;;16.63;;
46721;SDS011;32455;43.430;23.136;2022-12-19T11:40:05;28.05;;;14.63;;
46721;SDS011;32455;43.430;23.136;2022-12-19T11:49:24;35.17;;;16.88;;
46721;SDS011;32455;43.430;23.136;2022-12-19T11:52:55;32.20;;;16.33;;
46721;SDS011;32455;43.430;23.136;2022-12-19T11:55:59;30.33;;;15.05;;
46721;SDS011;32455;43.430;23.136;2022-12-19T11:58:50;29.38;;;14.13;;
46721;SDS011;32455;43.430;23.136;2022-12-19T12:07:45;33.83;;;16.98;;
46721;SDS011;32455;43.430;23.136;2022-12-19T12:10:44;32.75;;;16.52;;
46721;SDS011;32455;43.430;23.136;2022-12-19T12:13:45;36.50;;;18.63;;
46721;SDS011;32455;43.430;23.136;2022-12-19T12:17:17;34.63;;;16.58;;
46721;SDS011;32455;43.430;23.136;2022-12-19T12:23:37;36.92;;;16.58;;
46721;SDS011;32455;43.430;23.136;2022-12-19T12:29:53;37.92;;;16.77;;
46721;SDS011;32455;43.430;23.136;2022-12-19T12:35:37;31.98;;;14.95;;
46721;SDS011;32455;43.430;23.136;2022-12-19T12:44:08;33.15;;;15.45;;
46721;SDS011;32455;43.430;23.136;2022-12-19T12:47:00;36.03;;;15.93;;
46721;SDS011;32455;43.430;23.136;2022-12-19T12:49:53;32.17;;;15.90;;
46721;SDS011;32455;43.430;23.136;2022-12-19T12:52:41;38.47;;;16.75;;
46721;SDS011;32455;43.430;23.136;2022-12-19T12:55:35;35.15;;;17.20;;
46721;SDS011;32455;43.430;23.136;2022-12-19T13:01:33;38.88;;;18.30;;
46721;SDS011;32455;43.430;23.136;2022-12-19T13:04:30;33.75;;;16.40;;
46721;SDS011;32455;43.430;23.136;2022-12-19T13:07:29;30.88;;;16.65;;
46721;SDS011;32455;43.430;23.136;2022-12-19T13:10:28;34.40;;;16.70;;
46721;SDS011;32455;43.430;23.136;2022-12-19T13:13:15;33.97;;;17.08;;
46721;SDS011;32455;43.430;23.136;2022-12-19T13:16:04;38.03;;;17.90;;
46721;SDS011;32455;43.430;23.136;2022-12-19T13:28:14;43.55;;;18.85;;
46721;SDS011;32455;43.430;23.136;2022-12-19T13:43:20;37.20;;;16.70;;
46721;SDS011;32455;43.430;23.136;2022-12-19T13:46:42;36.03;;;15.45;;
46721;SDS011;32455;43.430;23.136;2022-12-19T13:49:29;32.80;;;14.18;;
46721;SDS011;32455;43.430;23.136;2022-12-19T13:52:17;38.95;;;17.23;;
46721;SDS011;32455;43.430;23.136;2022-12-19T13:55:02;30.85;;;15.73;;
46721;SDS011;32455;43.430;23.136;2022-12-19T13:57:48;38.88;;;17.42;;
46721;SDS011;32455;43.430;23.136;2022-12-19T14:00:39;32.22;;;16.15;;
46721;SDS011;32455;43.430;23.136;2022-12-19T14:04:02;37.25;;;17.27;;
46721;SDS011;32455;43.430;23.136;2022-12-19T14:06:41;35.67;;;16.08;;
46721;SDS011;32455;43.430;23.136;2022-12-19T14:09:38;34.30;;;16.42;;
46721;SDS011;32455;43.430;23.136;2022-12-19T14:12:30;32.78;;;16.65;;
46721;SDS011;32455;43.430;23.136;2022-12-19T14:15:46;38.58;;;18.88;;
46721;SDS011;32455;43.430;23.136;2022-12-19T14:18:33;30.38;;;15.25;;
46721;SDS011;32455;43.430;23.136;2022-12-19T14:21:20;28.90;;;15.27;;
46721;SDS011;32455;43.430;23.136;2022-12-19T14:24:08;36.25;;;14.85;;
46721;SDS011;32455;43.430;23.136;2022-12-19T14:27:06;36.67;;;17.08;;
46721;SDS011;32455;43.430;23.136;2022-12-19T14:29:58;33.72;;;14.52;;
46721;SDS011;32455;43.430;23.136;2022-12-19T14:32:45;37.05;;;18.08;;
46721;SDS011;32455;43.430;23.136;2022-12-19T14:35:36;43.50;;;18.25;;
46721;SDS011;32455;43.430;23.136;2022-12-19T14:38:25;38.15;;;17.88;;
46721;SDS011;32455;43.430;23.136;2022-12-19T14:41:20;33.00;;;14.68;;
46721;SDS011;32455;43.430;23.136;2022-12-19T14:44:46;35.80;;;16.48;;
46721;SDS011;32455;43.430;23.136;2022-12-19T14:47:36;36.47;;;16.42;;
46721;SDS011;32455;43.430;23.136;2022-12-19T14:50:30;36.78;;;16.55;;
46721;SDS011;32455;43.430;23.136;2022-12-19T14:53:18;41.92;;;17.20;;
46721;SDS011;32455;43.430;23.136;2022-12-19T14:56:09;32.72;;;15.52;;
46721;SDS011;32455;43.430;23.136;2022-12-19T14:58:55;37.83;;;20.20;;
46721;SDS011;32455;43.430;23.136;2022-12-19T15:01:41;37.70;;;18.83;;
46721;SDS011;32455;43.430;23.136;2022-12-19T15:04:36;37.08;;;18.25;;
46721;SDS011;32455;43.430;23.136;2022-12-19T15:07:33;38.40;;;18.90;;
46721;SDS011;32455;43.430;23.136;2022-12-19T15:16:20;34.13;;;18.75;;
46721;SDS011;32455;43.430;23.136;2022-12-19T15:19:12;39.70;;;17.13;;
46721;SDS011;32455;43.430;23.136;2022-12-19T15:21:57;38.40;;;17.30;;
46721;SDS011;32455;43.430;23.136;2022-12-19T15:24:42;40.20;;;18.38;;
46721;SDS011;32455;43.430;23.136;2022-12-19T15:27:27;40.20;;;19.52;;
46721;SDS011;32455;43.430;23.136;2022-12-19T15:30:14;40.45;;;19.33;;
46721;SDS011;32455;43.430;23.136;2022-12-19T15:33:08;41.08;;;19.13;;
46721;SDS011;32455;43.430;23.136;2022-12-19T15:38:42;41.22;;;19.60;;
46721;SDS011;32455;43.430;23.136;2022-12-19T15:41:27;37.95;;;19.23;;
46721;SDS011;32455;43.430;23.136;2022-12-19T15:44:17;38.08;;;17.92;;
46721;SDS011;32455;43.430;23.136;2022-12-19T15:47:18;39.00;;;17.75;;
46721;SDS011;32455;43.430;23.136;2022-12-19T15:50:14;36.80;;;17.38;;
46721;SDS011;32455;43.430;23.136;2022-12-19T15:53:04;42.53;;;21.10;;
46721;SDS011;32455;43.430;23.136;2022-12-19T15:56:04;42.53;;;19.73;;
46721;SDS011;32455;43.430;23.136;2022-12-19T16:02:21;39.15;;;17.90;;
46721;SDS011;32455;43.430;23.136;2022-12-19T16:05:09;34.88;;;16.88;;
46721;SDS011;32455;43.430;23.136;2022-12-19T16:07:55;41.33;;;15.88;;
46721;SDS011;32455;43.430;23.136;2022-12-19T16:10:45;37.28;;;16.83;;
46721;SDS011;32455;43.430;23.136;2022-12-19T16:13:33;33.70;;;16.50;;
46721;SDS011;32455;43.430;23.136;2022-12-19T16:16:18;40.80;;;15.80;;
46721;SDS011;32455;43.430;23.136;2022-12-19T16:19:25;38.75;;;17.55;;
46721;SDS011;32455;43.430;23.136;2022-12-19T16:22:17;43.58;;;16.45;;
46721;SDS011;32455;43.430;23.136;2022-12-19T16:27:53;37.33;;;16.13;;
46721;SDS011;32455;43.430;23.136;2022-12-19T16:30:40;33.15;;;15.98;;
46721;SDS011;32455;43.430;23.136;2022-12-19T16:33:29;35.15;;;16.33;;
46721;SDS011;32455;43.430;23.136;2022-12-19T16:36:15;45.38;;;18.13;;
46721;SDS011;32455;43.430;23.136;2022-12-19T16:39:00;31.10;;;13.98;;
46721;SDS011;32455;43.430;23.136;2022-12-19T16:41:46;39.63;;;15.90;;
46721;SDS011;32455;43.430;23.136;2022-12-19T16:44:32;31.70;;;14.02;;
46721;SDS011;32455;43.430;23.136;2022-12-19T16:47:19;27.23;;;13.52;;
46721;SDS011;32455;43.430;23.136;2022-12-19T16:50:37;31.05;;;13.50;;
46721;SDS011;32455;43.430;23.136;2022-12-19T16:53:17;38.47;;;13.55;;
46721;SDS011;32455;43.430;23.136;2022-12-19T16:56:04;27.60;;;12.27;;
46721;SDS011;32455;43.430;23.136;2022-12-19T16:58:51;29.85;;;12.55;;
46721;SDS011;32455;43.430;23.136;2022-12-19T17:01:36;26.75;;;11.88;;
46721;SDS011;32455;43.430;23.136;2022-12-19T17:04:22;31.05;;;12.68;;
46721;SDS011;32455;43.430;23.136;2022-12-19T17:07:09;28.92;;;13.55;;
46721;SDS011;32455;43.430;23.136;2022-12-19T17:09:54;28.48;;;13.32;;
46721;SDS011;32455;43.430;23.136;2022-12-19T17:12:39;28.58;;;13.25;;
46721;SDS011;32455;43.430;23.136;2022-12-19T17:15:30;27.67;;;11.85;;
46721;SDS011;32455;43.430;23.136;2022-12-19T17:21:16;28.98;;;11.88;;
46721;SDS011;32455;43.430;23.136;2022-12-19T17:24:04;26.85;;;11.93;;
46721;SDS011;32455;43.430;23.136;2022-12-19T17:26:49;29.83;;;11.90;;
46721;SDS011;32455;43.430;23.136;2022-12-19T17:29:36;22.55;;;11.98;;
46721;SDS011;32455;43.430;23.136;2022-12-19T17:32:21;29.45;;;12.98;;
46721;SDS011;32455;43.430;23.136;2022-12-19T17:35:12;27.67;;;12.25;;
46721;SDS011;32455;43.430;23.136;2022-12-19T17:37:58;25.40;;;12.63;;
46721;SDS011;32455;43.430;23.136;2022-12-19T17:40:43;26.20;;;11.18;;
46721;SDS011;32455;43.430;23.136;2022-12-19T17:43:30;28.33;;;13.65;;
46721;SDS011;32455;43.430;23.136;2022-12-19T17:46:15;29.80;;;12.68;;
46721;SDS011;32455;43.430;23.136;2022-12-19T17:49:05;24.88;;;11.48;;
46721;SDS011;32455;43.430;23.136;2022-12-19T17:52:16;27.90;;;11.90;;
46721;SDS011;32455;43.430;23.136;2022-12-19T17:55:13;30.35;;;11.68;;
46721;SDS011;32455;43.430;23.136;2022-12-19T17:58:02;23.40;;;10.05;;
46721;SDS011;32455;43.430;23.136;2022-12-19T18:00:47;34.03;;;11.43;;
46721;SDS011;32455;43.430;23.136;2022-12-19T18:03:34;26.73;;;11.43;;
46721;SDS011;32455;43.430;23.136;2022-12-19T18:06:21;23.05;;;10.45;;
46721;SDS011;32455;43.430;23.136;2022-12-19T18:09:22;26.27;;;11.27;;
46721;SDS011;32455;43.430;23.136;2022-12-19T18:12:08;24.30;;;10.85;;
46721;SDS011;32455;43.430;23.136;2022-12-19T18:14:53;27.02;;;12.68;;
46721;SDS011;32455;43.430;23.136;2022-12-19T18:17:39;24.83;;;11.65;;
46721;SDS011;32455;43.430;23.136;2022-12-19T18:20:26;25.95;;;12.05;;
46721;SDS011;32455;43.430;23.136;2022-12-19T18:23:16;27.30;;;12.10;;
46721;SDS011;32455;43.430;23.136;2022-12-19T18:26:03;26.65;;;11.90;;
46721;SDS011;32455;43.430;23.136;2022-12-19T18:28:50;26.27;;;11.23;;
46721;SDS011;32455;43.430;23.136;2022-12-19T18:31:35;26.65;;;12.10;;
46721;SDS011;32455;43.430;23.136;2022-12-19T18:34:22;25.63;;;12.30;;
46721;SDS011;32455;43.430;23.136;2022-12-19T18:37:13;35.90;;;14.90;;
46721;SDS011;32455;43.430;23.136;2022-12-19T18:39:59;28.75;;;13.77;;
46721;SDS011;32455;43.430;23.136;2022-12-19T18:42:44;35.42;;;14.05;;
46721;SDS011;32455;43.430;23.136;2022-12-19T18:45:36;29.15;;;13.43;;